sensor_id;sensor_type;location;lat;lon;timestamp;P1;durP1;ratioP1;P2;durP2;ratioP2
4758;SDS011;2393;50.560;12.636;2023-03-04T00:00:32;28.92;;;11.80;;
4758;SDS011;2393;50.560;12.636;2023-03-04T00:03:01;43.63;;;12.10;;
4758;SDS011;2393;50.560;12.636;2023-03-04T00:05:29;31.42;;;11.60;;
4758;SDS011;2393;50.560;12.636;2023-03-04T00:07:57;35.40;;;12.70;;
4758;SDS011;2393;50.560;12.636;2023-03-04T00:10:25;57.33;;;11.10;;
4758;SDS011;2393;50.560;12.636;2023-03-04T00:12:53;49.67;;;12.02;;
4758;SDS011;2393;50.560;12.636;2023-03-04T00:15:21;33.10;;;9.38;;
4758;SDS011;2393;50.560;12.636;2023-03-04T00:17:50;29.33;;;10.55;;
4758;SDS011;2393;50.560;12.636;2023-03-04T00:20:19;45.05;;;12.40;;
4758;SDS011;2393;50.560;12.636;2023-03-04T00:22:47;30.52;;;10.45;;
4758;SDS011;2393;50.560;12.636;2023-03-04T00:25:16;33.78;;;10.70;;
4758;SDS011;2393;50.560;12.636;2023-03-04T00:27:44;36.00;;;12.43;;
4758;SDS011;2393;50.560;12.636;2023-03-04T00:30:12;34.22;;;10.38;;
4758;SDS011;2393;50.560;12.636;2023-03-04T00:32:41;26.85;;;10.70;;
4758;SDS011;2393;50.560;12.636;2023-03-04T00:35:09;42.28;;;12.18;;
4758;SDS011;2393;50.560;12.636;2023-03-04T00:37:38;33.75;;;12.52;;
4758;SDS011;2393;50.560;12.636;2023-03-04T00:40:07;38.13;;;12.27;;
4758;SDS011;2393;50.560;12.636;2023-03-04T00:42:36;43.78;;;13.02;;
4758;SDS011;2393;50.560;12.636;2023-03-04T00:45:04;36.95;;;11.70;;
4758;SDS011;2393;50.560;12.636;2023-03-04T00:47:33;33.45;;;13.10;;
4758;SDS011;2393;50.560;12.636;2023-03-04T00:50:01;34.30;;;12.45;;
4758;SDS011;2393;50.560;12.636;2023-03-04T00:52:30;37.88;;;13.13;;
4758;SDS011;2393;50.560;12.636;2023-03-04T00:54:59;30.23;;;10.70;;
4758;SDS011;2393;50.560;12.636;2023-03-04T00:57:27;32.03;;;12.45;;
4758;SDS011;2393;50.560;12.636;2023-03-04T00:59:56;29.17;;;10.65;;
4758;SDS011;2393;50.560;12.636;2023-03-04T01:02:24;42.92;;;12.82;;
4758;SDS011;2393;50.560;12.636;2023-03-04T01:04:52;39.75;;;11.57;;
4758;SDS011;2393;50.560;12.636;2023-03-04T01:07:20;33.63;;;10.40;;
4758;SDS011;2393;50.560;12.636;2023-03-04T01:09:48;43.90;;;12.07;;
4758;SDS011;2393;50.560;12.636;2023-03-04T01:12:18;36.95;;;11.90;;
4758;SDS011;2393;50.560;12.636;2023-03-04T01:14:49;37.28;;;12.05;;
4758;SDS011;2393;50.560;12.636;2023-03-04T01:17:18;39.88;;;12.60;;
4758;SDS011;2393;50.560;12.636;2023-03-04T01:19:46;43.17;;;14.02;;
4758;SDS011;2393;50.560;12.636;2023-03-04T01:22:15;49.67;;;14.43;;
4758;SDS011;2393;50.560;12.636;2023-03-04T01:24:46;47.63;;;12.20;;
4758;SDS011;2393;50.560;12.636;2023-03-04T01:27:14;36.33;;;13.13;;
4758;SDS011;2393;50.560;12.636;2023-03-04T01:29:43;34.88;;;12.43;;
4758;SDS011;2393;50.560;12.636;2023-03-04T01:32:12;41.53;;;13.77;;
4758;SDS011;2393;50.560;12.636;2023-03-04T01:34:40;35.10;;;11.27;;
4758;SDS011;2393;50.560;12.636;2023-03-04T01:37:08;37.42;;;11.10;;
4758;SDS011;2393;50.560;12.636;2023-03-04T01:39:39;33.28;;;11.50;;
4758;SDS011;2393;50.560;12.636;2023-03-04T01:42:08;36.13;;;12.10;;
4758;SDS011;2393;50.560;12.636;2023-03-04T01:44:44;23.90;;;10.65;;
4758;SDS011;2393;50.560;12.636;2023-03-04T01:47:14;41.55;;;10.45;;
4758;SDS011;2393;50.560;12.636;2023-03-04T01:49:42;39.25;;;12.68;;
4758;SDS011;2393;50.560;12.636;2023-03-04T01:52:11;40.20;;;10.98;;
4758;SDS011;2393;50.560;12.636;2023-03-04T01:54:40;27.05;;;9.82;;
4758;SDS011;2393;50.560;12.636;2023-03-04T01:57:14;29.55;;;10.98;;
4758;SDS011;2393;50.560;12.636;2023-03-04T01:59:45;42.05;;;10.68;;
4758;SDS011;2393;50.560;12.636;2023-03-04T02:02:15;33.53;;;12.15;;
4758;SDS011;2393;50.560;12.636;2023-03-04T02:04:43;29.73;;;10.77;;
4758;SDS011;2393;50.560;12.636;2023-03-04T02:07:11;39.45;;;10.25;;
4758;SDS011;2393;50.560;12.636;2023-03-04T02:09:40;36.60;;;11.73;;
4758;SDS011;2393;50.560;12.636;2023-03-04T02:12:11;33.47;;;10.70;;
4758;SDS011;2393;50.560;12.636;2023-03-04T02:14:40;29.98;;;9.27;;
4758;SDS011;2393;50.560;12.636;2023-03-04T02:17:10;27.05;;;8.05;;
4758;SDS011;2393;50.560;12.636;2023-03-04T02:19:40;15.00;;;6.63;;
4758;SDS011;2393;50.560;12.636;2023-03-04T02:22:13;12.13;;;6.13;;
4758;SDS011;2393;50.560;12.636;2023-03-04T02:24:42;17.67;;;7.32;;
4758;SDS011;2393;50.560;12.636;2023-03-04T02:27:15;12.50;;;6.28;;
4758;SDS011;2393;50.560;12.636;2023-03-04T02:29:45;16.83;;;5.75;;
4758;SDS011;2393;50.560;12.636;2023-03-04T02:32:13;10.85;;;5.82;;
4758;SDS011;2393;50.560;12.636;2023-03-04T02:34:44;12.68;;;5.60;;
4758;SDS011;2393;50.560;12.636;2023-03-04T02:37:13;10.90;;;5.65;;
4758;SDS011;2393;50.560;12.636;2023-03-04T02:39:43;14.27;;;5.85;;
4758;SDS011;2393;50.560;12.636;2023-03-04T02:42:12;13.82;;;6.35;;
4758;SDS011;2393;50.560;12.636;2023-03-04T02:44:42;12.18;;;6.38;;
4758;SDS011;2393;50.560;12.636;2023-03-04T02:47:15;14.30;;;6.55;;
4758;SDS011;2393;50.560;12.636;2023-03-04T02:49:45;15.95;;;6.78;;
4758;SDS011;2393;50.560;12.636;2023-03-04T02:52:15;13.57;;;6.60;;
4758;SDS011;2393;50.560;12.636;2023-03-04T02:54:45;12.32;;;6.97;;
4758;SDS011;2393;50.560;12.636;2023-03-04T02:57:16;12.20;;;6.30;;
4758;SDS011;2393;50.560;12.636;2023-03-04T02:59:50;14.90;;;7.30;;
4758;SDS011;2393;50.560;12.636;2023-03-04T03:02:21;8.95;;;5.65;;
4758;SDS011;2393;50.560;12.636;2023-03-04T03:04:49;20.45;;;6.13;;
4758;SDS011;2393;50.560;12.636;2023-03-04T03:07:19;10.95;;;5.88;;
4758;SDS011;2393;50.560;12.636;2023-03-04T03:09:47;14.23;;;6.60;;
4758;SDS011;2393;50.560;12.636;2023-03-04T03:12:18;17.98;;;7.10;;
4758;SDS011;2393;50.560;12.636;2023-03-04T03:14:47;12.73;;;6.13;;
4758;SDS011;2393;50.560;12.636;2023-03-04T03:17:17;15.13;;;6.05;;
4758;SDS011;2393;50.560;12.636;2023-03-04T03:19:45;16.20;;;5.90;;
4758;SDS011;2393;50.560;12.636;2023-03-04T03:22:14;18.58;;;7.15;;
4758;SDS011;2393;50.560;12.636;2023-03-04T03:24:42;18.02;;;8.43;;
4758;SDS011;2393;50.560;12.636;2023-03-04T03:27:10;19.02;;;8.10;;
4758;SDS011;2393;50.560;12.636;2023-03-04T03:29:39;17.67;;;7.60;;
4758;SDS011;2393;50.560;12.636;2023-03-04T03:32:07;24.13;;;9.30;;
4758;SDS011;2393;50.560;12.636;2023-03-04T03:34:35;24.98;;;8.73;;
4758;SDS011;2393;50.560;12.636;2023-03-04T03:37:04;24.70;;;8.35;;
4758;SDS011;2393;50.560;12.636;2023-03-04T03:39:32;23.13;;;8.85;;
4758;SDS011;2393;50.560;12.636;2023-03-04T03:42:00;22.42;;;9.30;;
4758;SDS011;2393;50.560;12.636;2023-03-04T03:44:28;23.77;;;9.30;;
4758;SDS011;2393;50.560;12.636;2023-03-04T03:46:57;22.67;;;8.93;;
4758;SDS011;2393;50.560;12.636;2023-03-04T03:49:26;26.55;;;9.65;;
4758;SDS011;2393;50.560;12.636;2023-03-04T03:51:54;23.35;;;9.65;;
4758;SDS011;2393;50.560;12.636;2023-03-04T03:54:22;17.90;;;8.43;;
4758;SDS011;2393;50.560;12.636;2023-03-04T03:56:50;23.83;;;9.30;;
4758;SDS011;2393;50.560;12.636;2023-03-04T03:59:18;29.58;;;9.07;;
4758;SDS011;2393;50.560;12.636;2023-03-04T04:01:46;30.95;;;10.55;;
4758;SDS011;2393;50.560;12.636;2023-03-04T04:04:16;30.15;;;9.40;;
4758;SDS011;2393;50.560;12.636;2023-03-04T04:06:44;34.70;;;11.30;;
4758;SDS011;2393;50.560;12.636;2023-03-04T04:09:12;19.83;;;8.85;;
4758;SDS011;2393;50.560;12.636;2023-03-04T04:11:40;17.40;;;8.45;;
4758;SDS011;2393;50.560;12.636;2023-03-04T04:14:08;26.52;;;9.93;;
4758;SDS011;2393;50.560;12.636;2023-03-04T04:16:39;24.10;;;9.43;;
4758;SDS011;2393;50.560;12.636;2023-03-04T04:19:08;25.10;;;10.02;;
4758;SDS011;2393;50.560;12.636;2023-03-04T04:21:41;29.90;;;11.77;;
4758;SDS011;2393;50.560;12.636;2023-03-04T04:24:10;37.50;;;12.05;;
4758;SDS011;2393;50.560;12.636;2023-03-04T04:26:38;30.88;;;10.02;;
4758;SDS011;2393;50.560;12.636;2023-03-04T04:29:06;29.63;;;10.35;;
4758;SDS011;2393;50.560;12.636;2023-03-04T04:31:35;34.38;;;12.70;;
4758;SDS011;2393;50.560;12.636;2023-03-04T04:34:03;28.67;;;11.52;;
4758;SDS011;2393;50.560;12.636;2023-03-04T04:36:31;26.90;;;12.40;;
4758;SDS011;2393;50.560;12.636;2023-03-04T04:39:01;29.58;;;10.70;;
4758;SDS011;2393;50.560;12.636;2023-03-04T04:41:30;25.80;;;11.02;;
4758;SDS011;2393;50.560;12.636;2023-03-04T04:44:01;30.83;;;11.48;;
4758;SDS011;2393;50.560;12.636;2023-03-04T04:46:29;34.00;;;11.40;;
4758;SDS011;2393;50.560;12.636;2023-03-04T04:48:57;30.80;;;12.55;;
4758;SDS011;2393;50.560;12.636;2023-03-04T04:51:25;25.45;;;11.70;;
4758;SDS011;2393;50.560;12.636;2023-03-04T04:53:54;36.63;;;12.15;;
4758;SDS011;2393;50.560;12.636;2023-03-04T04:56:23;29.48;;;11.90;;
4758;SDS011;2393;50.560;12.636;2023-03-04T04:58:52;23.20;;;10.13;;
4758;SDS011;2393;50.560;12.636;2023-03-04T05:01:22;25.70;;;10.77;;
4758;SDS011;2393;50.560;12.636;2023-03-04T05:03:51;26.70;;;10.50;;
4758;SDS011;2393;50.560;12.636;2023-03-04T05:06:20;27.73;;;12.25;;
4758;SDS011;2393;50.560;12.636;2023-03-04T05:08:50;36.45;;;11.18;;
4758;SDS011;2393;50.560;12.636;2023-03-04T05:11:19;31.77;;;11.80;;
4758;SDS011;2393;50.560;12.636;2023-03-04T05:13:48;37.45;;;13.50;;
4758;SDS011;2393;50.560;12.636;2023-03-04T05:16:16;32.72;;;13.00;;
4758;SDS011;2393;50.560;12.636;2023-03-04T05:18:45;30.05;;;11.98;;
4758;SDS011;2393;50.560;12.636;2023-03-04T05:21:13;37.58;;;13.25;;
4758;SDS011;2393;50.560;12.636;2023-03-04T05:23:42;27.48;;;11.75;;
4758;SDS011;2393;50.560;12.636;2023-03-04T05:26:11;29.58;;;12.38;;
4758;SDS011;2393;50.560;12.636;2023-03-04T05:28:41;32.63;;;11.48;;
4758;SDS011;2393;50.560;12.636;2023-03-04T05:31:10;30.65;;;12.05;;
4758;SDS011;2393;50.560;12.636;2023-03-04T05:33:39;33.72;;;13.60;;
4758;SDS011;2393;50.560;12.636;2023-03-04T05:36:07;28.77;;;11.85;;
4758;SDS011;2393;50.560;12.636;2023-03-04T05:38:35;32.00;;;10.57;;
4758;SDS011;2393;50.560;12.636;2023-03-04T05:41:04;24.90;;;11.38;;
4758;SDS011;2393;50.560;12.636;2023-03-04T05:43:33;28.27;;;12.93;;
4758;SDS011;2393;50.560;12.636;2023-03-04T05:46:03;30.98;;;11.95;;
4758;SDS011;2393;50.560;12.636;2023-03-04T05:48:33;30.73;;;11.43;;
4758;SDS011;2393;50.560;12.636;2023-03-04T05:51:01;26.10;;;13.38;;
4758;SDS011;2393;50.560;12.636;2023-03-04T05:53:35;24.30;;;10.45;;
4758;SDS011;2393;50.560;12.636;2023-03-04T05:56:08;31.50;;;11.85;;
4758;SDS011;2393;50.560;12.636;2023-03-04T05:58:36;21.00;;;9.88;;
4758;SDS011;2393;50.560;12.636;2023-03-04T06:01:05;29.35;;;10.40;;
4758;SDS011;2393;50.560;12.636;2023-03-04T06:03:34;22.85;;;10.50;;
4758;SDS011;2393;50.560;12.636;2023-03-04T06:06:03;34.10;;;10.30;;
4758;SDS011;2393;50.560;12.636;2023-03-04T06:08:32;32.70;;;13.25;;
4758;SDS011;2393;50.560;12.636;2023-03-04T06:11:00;24.77;;;10.88;;
4758;SDS011;2393;50.560;12.636;2023-03-04T06:13:28;35.20;;;10.98;;
4758;SDS011;2393;50.560;12.636;2023-03-04T06:15:57;33.15;;;10.95;;
4758;SDS011;2393;50.560;12.636;2023-03-04T06:18:26;24.02;;;10.38;;
4758;SDS011;2393;50.560;12.636;2023-03-04T06:20:57;27.38;;;9.70;;
4758;SDS011;2393;50.560;12.636;2023-03-04T06:23:27;20.10;;;9.90;;
4758;SDS011;2393;50.560;12.636;2023-03-04T06:25:56;30.05;;;11.48;;
4758;SDS011;2393;50.560;12.636;2023-03-04T06:28:26;31.65;;;10.40;;
4758;SDS011;2393;50.560;12.636;2023-03-04T06:30:54;20.02;;;10.63;;
4758;SDS011;2393;50.560;12.636;2023-03-04T06:33:23;33.17;;;10.70;;
4758;SDS011;2393;50.560;12.636;2023-03-04T06:35:52;28.17;;;10.20;;
4758;SDS011;2393;50.560;12.636;2023-03-04T06:38:23;25.90;;;9.77;;
4758;SDS011;2393;50.560;12.636;2023-03-04T06:40:52;27.38;;;9.90;;
4758;SDS011;2393;50.560;12.636;2023-03-04T06:43:22;20.75;;;10.75;;
4758;SDS011;2393;50.560;12.636;2023-03-04T06:45:50;25.95;;;9.75;;
4758;SDS011;2393;50.560;12.636;2023-03-04T06:48:19;24.23;;;10.52;;
4758;SDS011;2393;50.560;12.636;2023-03-04T06:50:47;27.83;;;9.73;;
4758;SDS011;2393;50.560;12.636;2023-03-04T06:53:15;22.25;;;8.98;;
4758;SDS011;2393;50.560;12.636;2023-03-04T06:55:44;31.67;;;11.43;;
4758;SDS011;2393;50.560;12.636;2023-03-04T06:58:13;29.92;;;9.48;;
4758;SDS011;2393;50.560;12.636;2023-03-04T07:00:42;20.58;;;9.07;;
4758;SDS011;2393;50.560;12.636;2023-03-04T07:03:11;30.60;;;9.15;;
4758;SDS011;2393;50.560;12.636;2023-03-04T07:05:39;21.60;;;8.85;;
4758;SDS011;2393;50.560;12.636;2023-03-04T07:08:08;18.70;;;8.88;;
4758;SDS011;2393;50.560;12.636;2023-03-04T07:10:36;30.30;;;8.88;;
4758;SDS011;2393;50.560;12.636;2023-03-04T07:13:05;26.45;;;8.57;;
4758;SDS011;2393;50.560;12.636;2023-03-04T07:15:33;32.65;;;10.32;;
4758;SDS011;2393;50.560;12.636;2023-03-04T07:18:02;25.75;;;10.32;;
4758;SDS011;2393;50.560;12.636;2023-03-04T07:20:30;26.02;;;8.82;;
4758;SDS011;2393;50.560;12.636;2023-03-04T07:22:58;29.35;;;8.70;;
4758;SDS011;2393;50.560;12.636;2023-03-04T07:25:26;22.60;;;9.60;;
4758;SDS011;2393;50.560;12.636;2023-03-04T07:27:54;24.50;;;9.15;;
4758;SDS011;2393;50.560;12.636;2023-03-04T07:30:24;23.05;;;9.23;;
4758;SDS011;2393;50.560;12.636;2023-03-04T07:32:52;16.15;;;7.70;;
4758;SDS011;2393;50.560;12.636;2023-03-04T07:35:20;21.02;;;7.30;;
4758;SDS011;2393;50.560;12.636;2023-03-04T07:37:48;33.97;;;8.77;;
4758;SDS011;2393;50.560;12.636;2023-03-04T07:40:16;20.40;;;8.02;;
4758;SDS011;2393;50.560;12.636;2023-03-04T07:42:48;20.60;;;7.68;;
4758;SDS011;2393;50.560;12.636;2023-03-04T07:45:16;16.88;;;8.73;;
4758;SDS011;2393;50.560;12.636;2023-03-04T07:47:50;23.30;;;8.30;;
4758;SDS011;2393;50.560;12.636;2023-03-04T07:50:19;16.48;;;8.02;;
4758;SDS011;2393;50.560;12.636;2023-03-04T07:52:48;23.42;;;7.20;;
4758;SDS011;2393;50.560;12.636;2023-03-04T07:55:17;22.40;;;8.30;;
4758;SDS011;2393;50.560;12.636;2023-03-04T07:57:46;22.38;;;7.78;;
4758;SDS011;2393;50.560;12.636;2023-03-04T08:00:15;13.45;;;7.28;;
4758;SDS011;2393;50.560;12.636;2023-03-04T08:02:44;22.13;;;7.97;;
4758;SDS011;2393;50.560;12.636;2023-03-04T08:05:14;23.75;;;7.15;;
4758;SDS011;2393;50.560;12.636;2023-03-04T08:07:42;24.65;;;7.70;;
4758;SDS011;2393;50.560;12.636;2023-03-04T08:10:10;25.70;;;8.90;;
4758;SDS011;2393;50.560;12.636;2023-03-04T08:12:39;15.30;;;7.80;;
4758;SDS011;2393;50.560;12.636;2023-03-04T08:15:07;23.38;;;7.10;;
4758;SDS011;2393;50.560;12.636;2023-03-04T08:17:36;19.17;;;6.85;;
4758;SDS011;2393;50.560;12.636;2023-03-04T08:20:04;24.90;;;8.13;;
4758;SDS011;2393;50.560;12.636;2023-03-04T08:22:35;23.23;;;8.80;;
4758;SDS011;2393;50.560;12.636;2023-03-04T08:25:03;18.95;;;6.70;;
4758;SDS011;2393;50.560;12.636;2023-03-04T08:27:32;22.45;;;7.80;;
4758;SDS011;2393;50.560;12.636;2023-03-04T08:29:59;14.70;;;7.38;;
4758;SDS011;2393;50.560;12.636;2023-03-04T08:32:27;15.13;;;6.85;;
4758;SDS011;2393;50.560;12.636;2023-03-04T08:34:56;14.40;;;6.45;;
4758;SDS011;2393;50.560;12.636;2023-03-04T08:37:24;13.93;;;5.85;;
4758;SDS011;2393;50.560;12.636;2023-03-04T08:39:53;25.60;;;6.20;;
4758;SDS011;2393;50.560;12.636;2023-03-04T08:42:21;13.48;;;5.70;;
4758;SDS011;2393;50.560;12.636;2023-03-04T08:44:50;15.13;;;6.72;;
4758;SDS011;2393;50.560;12.636;2023-03-04T08:47:18;22.55;;;6.20;;
4758;SDS011;2393;50.560;12.636;2023-03-04T08:49:46;20.70;;;6.53;;
4758;SDS011;2393;50.560;12.636;2023-03-04T08:52:14;14.48;;;5.82;;
4758;SDS011;2393;50.560;12.636;2023-03-04T08:54:42;18.48;;;6.03;;
4758;SDS011;2393;50.560;12.636;2023-03-04T08:57:11;18.95;;;6.18;;
4758;SDS011;2393;50.560;12.636;2023-03-04T08:59:39;8.93;;;5.78;;
4758;SDS011;2393;50.560;12.636;2023-03-04T09:02:08;31.70;;;6.18;;
4758;SDS011;2393;50.560;12.636;2023-03-04T09:04:36;22.48;;;6.28;;
4758;SDS011;2393;50.560;12.636;2023-03-04T09:07:04;36.80;;;6.47;;
4758;SDS011;2393;50.560;12.636;2023-03-04T09:09:32;25.10;;;6.07;;
4758;SDS011;2393;50.560;12.636;2023-03-04T09:12:00;23.02;;;5.20;;
4758;SDS011;2393;50.560;12.636;2023-03-04T09:14:30;18.02;;;6.00;;
4758;SDS011;2393;50.560;12.636;2023-03-04T09:17:01;15.20;;;7.03;;
4758;SDS011;2393;50.560;12.636;2023-03-04T09:19:29;16.58;;;4.72;;
4758;SDS011;2393;50.560;12.636;2023-03-04T09:21:57;18.60;;;5.53;;
4758;SDS011;2393;50.560;12.636;2023-03-04T09:24:25;9.82;;;3.95;;
4758;SDS011;2393;50.560;12.636;2023-03-04T09:26:54;6.35;;;3.40;;
4758;SDS011;2393;50.560;12.636;2023-03-04T09:29:22;16.65;;;4.60;;
4758;SDS011;2393;50.560;12.636;2023-03-04T09:31:51;7.65;;;3.45;;
4758;SDS011;2393;50.560;12.636;2023-03-04T09:34:19;8.35;;;3.47;;
4758;SDS011;2393;50.560;12.636;2023-03-04T09:36:47;26.05;;;4.43;;
4758;SDS011;2393;50.560;12.636;2023-03-04T09:39:15;13.20;;;4.53;;
4758;SDS011;2393;50.560;12.636;2023-03-04T09:41:45;12.43;;;4.22;;
4758;SDS011;2393;50.560;12.636;2023-03-04T09:44:17;7.47;;;3.17;;
4758;SDS011;2393;50.560;12.636;2023-03-04T09:46:51;9.38;;;4.47;;
4758;SDS011;2393;50.560;12.636;2023-03-04T09:49:23;13.02;;;4.95;;
4758;SDS011;2393;50.560;12.636;2023-03-04T09:51:56;18.25;;;4.50;;
4758;SDS011;2393;50.560;12.636;2023-03-04T09:54:49;6.75;;;3.05;;
4758;SDS011;2393;50.560;12.636;2023-03-04T09:57:26;11.70;;;3.40;;
4758;SDS011;2393;50.560;12.636;2023-03-04T10:00:00;7.85;;;3.65;;
4758;SDS011;2393;50.560;12.636;2023-03-04T10:02:41;7.38;;;3.67;;
4758;SDS011;2393;50.560;12.636;2023-03-04T10:05:13;12.20;;;4.15;;
4758;SDS011;2393;50.560;12.636;2023-03-04T10:07:47;17.27;;;4.00;;
4758;SDS011;2393;50.560;12.636;2023-03-04T10:10:23;19.73;;;5.40;;
4758;SDS011;2393;50.560;12.636;2023-03-04T10:12:57;19.73;;;5.00;;
4758;SDS011;2393;50.560;12.636;2023-03-04T10:15:29;9.77;;;4.45;;
4758;SDS011;2393;50.560;12.636;2023-03-04T10:18:05;8.70;;;3.60;;
4758;SDS011;2393;50.560;12.636;2023-03-04T10:20:43;18.13;;;4.65;;
4758;SDS011;2393;50.560;12.636;2023-03-04T10:23:18;6.00;;;4.00;;
4758;SDS011;2393;50.560;12.636;2023-03-04T10:25:48;12.73;;;3.50;;
4758;SDS011;2393;50.560;12.636;2023-03-04T10:28:20;10.00;;;4.57;;
4758;SDS011;2393;50.560;12.636;2023-03-04T10:30:54;5.47;;;4.35;;
4758;SDS011;2393;50.560;12.636;2023-03-04T10:33:28;13.60;;;4.03;;
4758;SDS011;2393;50.560;12.636;2023-03-04T10:35:59;14.93;;;3.75;;
4758;SDS011;2393;50.560;12.636;2023-03-04T10:38:29;9.73;;;3.25;;
4758;SDS011;2393;50.560;12.636;2023-03-04T10:40:58;5.50;;;2.88;;
4758;SDS011;2393;50.560;12.636;2023-03-04T10:43:27;14.95;;;4.70;;
4758;SDS011;2393;50.560;12.636;2023-03-04T10:45:56;15.00;;;3.88;;
4758;SDS011;2393;50.560;12.636;2023-03-04T10:48:28;11.80;;;5.80;;
4758;SDS011;2393;50.560;12.636;2023-03-04T10:51:09;18.58;;;5.97;;
4758;SDS011;2393;50.560;12.636;2023-03-04T10:53:40;16.10;;;6.15;;
4758;SDS011;2393;50.560;12.636;2023-03-04T10:56:29;10.23;;;4.57;;
4758;SDS011;2393;50.560;12.636;2023-03-04T11:01:59;15.50;;;3.83;;
4758;SDS011;2393;50.560;12.636;2023-03-04T11:04:33;9.57;;;3.72;;
4758;SDS011;2393;50.560;12.636;2023-03-04T11:07:01;18.85;;;4.50;;
4758;SDS011;2393;50.560;12.636;2023-03-04T11:09:34;8.77;;;3.15;;
4758;SDS011;2393;50.560;12.636;2023-03-04T11:12:05;11.52;;;3.40;;
4758;SDS011;2393;50.560;12.636;2023-03-04T11:14:37;10.60;;;3.58;;
4758;SDS011;2393;50.560;12.636;2023-03-04T11:20:08;11.23;;;2.85;;
4758;SDS011;2393;50.560;12.636;2023-03-04T11:22:40;11.55;;;3.67;;
4758;SDS011;2393;50.560;12.636;2023-03-04T11:25:16;3.38;;;2.67;;
4758;SDS011;2393;50.560;12.636;2023-03-04T11:27:53;11.02;;;3.55;;
4758;SDS011;2393;50.560;12.636;2023-03-04T11:30:28;9.60;;;3.03;;
4758;SDS011;2393;50.560;12.636;2023-03-04T11:33:08;9.05;;;2.90;;
4758;SDS011;2393;50.560;12.636;2023-03-04T11:35:54;10.02;;;2.78;;
4758;SDS011;2393;50.560;12.636;2023-03-04T11:38:31;8.98;;;3.72;;
4758;SDS011;2393;50.560;12.636;2023-03-04T11:41:07;7.13;;;2.72;;
4758;SDS011;2393;50.560;12.636;2023-03-04T11:43:40;3.78;;;2.55;;
4758;SDS011;2393;50.560;12.636;2023-03-04T11:46:14;12.00;;;3.45;;
4758;SDS011;2393;50.560;12.636;2023-03-04T11:49:14;3.80;;;2.05;;
4758;SDS011;2393;50.560;12.636;2023-03-04T11:51:56;8.80;;;2.60;;
4758;SDS011;2393;50.560;12.636;2023-03-04T11:54:30;5.03;;;2.30;;
4758;SDS011;2393;50.560;12.636;2023-03-04T11:57:05;10.63;;;2.70;;
4758;SDS011;2393;50.560;12.636;2023-03-04T11:59:41;10.57;;;4.88;;
4758;SDS011;2393;50.560;12.636;2023-03-04T12:02:38;5.25;;;3.03;;
4758;SDS011;2393;50.560;12.636;2023-03-04T12:05:22;3.75;;;1.88;;
4758;SDS011;2393;50.560;12.636;2023-03-04T12:11:00;8.77;;;2.33;;
4758;SDS011;2393;50.560;12.636;2023-03-04T12:13:38;6.18;;;1.92;;
4758;SDS011;2393;50.560;12.636;2023-03-04T12:16:20;3.90;;;2.38;;
4758;SDS011;2393;50.560;12.636;2023-03-04T12:19:13;1.77;;;1.67;;
4758;SDS011;2393;50.560;12.636;2023-03-04T12:21:55;8.88;;;2.10;;
4758;SDS011;2393;50.560;12.636;2023-03-04T12:24:40;2.45;;;1.80;;
4758;SDS011;2393;50.560;12.636;2023-03-04T12:27:23;7.03;;;2.00;;
4758;SDS011;2393;50.560;12.636;2023-03-04T12:29:58;4.53;;;1.42;;
4758;SDS011;2393;50.560;12.636;2023-03-04T12:32:34;4.20;;;1.95;;
4758;SDS011;2393;50.560;12.636;2023-03-04T12:35:17;8.48;;;2.08;;
4758;SDS011;2393;50.560;12.636;2023-03-04T12:41:20;4.72;;;1.65;;
4758;SDS011;2393;50.560;12.636;2023-03-04T12:43:56;2.35;;;1.17;;
4758;SDS011;2393;50.560;12.636;2023-03-04T12:46:36;4.05;;;2.15;;
4758;SDS011;2393;50.560;12.636;2023-03-04T12:49:18;7.57;;;2.30;;
4758;SDS011;2393;50.560;12.636;2023-03-04T12:52:06;7.18;;;1.70;;
4758;SDS011;2393;50.560;12.636;2023-03-04T12:54:42;4.88;;;1.88;;
4758;SDS011;2393;50.560;12.636;2023-03-04T12:57:15;9.25;;;1.77;;
4758;SDS011;2393;50.560;12.636;2023-03-04T12:59:48;3.72;;;1.60;;
4758;SDS011;2393;50.560;12.636;2023-03-04T13:02:28;17.45;;;1.95;;
4758;SDS011;2393;50.560;12.636;2023-03-04T13:05:07;13.80;;;1.50;;
4758;SDS011;2393;50.560;12.636;2023-03-04T13:07:59;3.67;;;2.10;;
4758;SDS011;2393;50.560;12.636;2023-03-04T13:10:36;32.95;;;8.95;;
4758;SDS011;2393;50.560;12.636;2023-03-04T13:13:31;2.38;;;2.17;;
4758;SDS011;2393;50.560;12.636;2023-03-04T13:16:14;4.60;;;2.72;;
4758;SDS011;2393;50.560;12.636;2023-03-04T13:18:56;4.72;;;1.55;;
4758;SDS011;2393;50.560;12.636;2023-03-04T13:21:25;4.13;;;2.10;;
4758;SDS011;2393;50.560;12.636;2023-03-04T13:23:55;3.55;;;1.70;;
4758;SDS011;2393;50.560;12.636;2023-03-04T13:26:28;54.17;;;17.63;;
4758;SDS011;2393;50.560;12.636;2023-03-04T13:32:03;9.43;;;5.60;;
4758;SDS011;2393;50.560;12.636;2023-03-04T13:34:43;13.55;;;1.80;;
4758;SDS011;2393;50.560;12.636;2023-03-04T13:37:24;2.85;;;1.83;;
4758;SDS011;2393;50.560;12.636;2023-03-04T13:43:22;5.53;;;1.58;;
4758;SDS011;2393;50.560;12.636;2023-03-04T13:45:53;4.65;;;1.30;;
4758;SDS011;2393;50.560;12.636;2023-03-04T13:48:29;6.40;;;1.85;;
4758;SDS011;2393;50.560;12.636;2023-03-04T13:51:01;5.25;;;1.73;;
4758;SDS011;2393;50.560;12.636;2023-03-04T13:53:32;4.43;;;1.45;;
4758;SDS011;2393;50.560;12.636;2023-03-04T13:59:16;5.00;;;2.30;;
4758;SDS011;2393;50.560;12.636;2023-03-04T14:01:53;1.40;;;1.30;;
4758;SDS011;2393;50.560;12.636;2023-03-04T14:04:25;2.67;;;1.42;;
4758;SDS011;2393;50.560;12.636;2023-03-04T14:06:56;3.63;;;2.30;;
4758;SDS011;2393;50.560;12.636;2023-03-04T14:09:26;3.58;;;1.35;;
4758;SDS011;2393;50.560;12.636;2023-03-04T14:11:56;1.95;;;1.33;;
4758;SDS011;2393;50.560;12.636;2023-03-04T14:14:29;4.78;;;1.60;;
4758;SDS011;2393;50.560;12.636;2023-03-04T14:17:04;4.10;;;1.60;;
4758;SDS011;2393;50.560;12.636;2023-03-04T14:19:35;1.58;;;1.48;;
4758;SDS011;2393;50.560;12.636;2023-03-04T14:22:23;1.60;;;1.27;;
4758;SDS011;2393;50.560;12.636;2023-03-04T14:24:57;8.13;;;1.30;;
4758;SDS011;2393;50.560;12.636;2023-03-04T14:27:28;1.40;;;1.30;;
4758;SDS011;2393;50.560;12.636;2023-03-04T14:29:58;1.33;;;1.23;;
4758;SDS011;2393;50.560;12.636;2023-03-04T14:32:29;1.30;;;1.20;;
4758;SDS011;2393;50.560;12.636;2023-03-04T14:35:00;2.03;;;1.58;;
4758;SDS011;2393;50.560;12.636;2023-03-04T14:37:32;9.90;;;0.90;;
4758;SDS011;2393;50.560;12.636;2023-03-04T14:40:09;5.72;;;2.08;;
4758;SDS011;2393;50.560;12.636;2023-03-04T14:42:45;1.52;;;1.23;;
4758;SDS011;2393;50.560;12.636;2023-03-04T14:45:15;2.97;;;1.27;;
4758;SDS011;2393;50.560;12.636;2023-03-04T14:47:45;5.90;;;1.55;;
4758;SDS011;2393;50.560;12.636;2023-03-04T14:50:15;2.25;;;1.10;;
4758;SDS011;2393;50.560;12.636;2023-03-04T14:52:46;0.95;;;0.90;;
4758;SDS011;2393;50.560;12.636;2023-03-04T14:55:21;1.27;;;1.17;;
4758;SDS011;2393;50.560;12.636;2023-03-04T14:57:51;1.55;;;0.95;;
4758;SDS011;2393;50.560;12.636;2023-03-04T15:00:26;4.55;;;1.55;;
4758;SDS011;2393;50.560;12.636;2023-03-04T15:02:58;1.10;;;1.05;;
4758;SDS011;2393;50.560;12.636;2023-03-04T15:05:28;3.78;;;1.52;;
4758;SDS011;2393;50.560;12.636;2023-03-04T15:07:58;2.08;;;0.85;;
4758;SDS011;2393;50.560;12.636;2023-03-04T15:13:35;2.20;;;1.95;;
4758;SDS011;2393;50.560;12.636;2023-03-04T15:16:17;3.90;;;1.10;;
4758;SDS011;2393;50.560;12.636;2023-03-04T15:18:53;0.90;;;0.90;;
4758;SDS011;2393;50.560;12.636;2023-03-04T15:21:27;1.50;;;1.40;;
4758;SDS011;2393;50.560;12.636;2023-03-04T15:24:00;1.30;;;1.08;;
4758;SDS011;2393;50.560;12.636;2023-03-04T15:26:29;2.38;;;1.23;;
4758;SDS011;2393;50.560;12.636;2023-03-04T15:28:59;1.30;;;1.20;;
4758;SDS011;2393;50.560;12.636;2023-03-04T15:31:27;2.80;;;0.85;;
4758;SDS011;2393;50.560;12.636;2023-03-04T15:33:56;3.28;;;1.27;;
4758;SDS011;2393;50.560;12.636;2023-03-04T15:36:24;9.85;;;1.80;;